createdAt,value
2023-08-11T00:02:09.050Z,101918.22
2023-08-11T00:04:38.310Z,101913.13
2023-08-11T00:07:06.779Z,101915.13
2023-08-11T00:09:34.874Z,101902.75
2023-08-11T00:12:02.648Z,101910.09
2023-08-11T00:14:33.164Z,101910.09
2023-08-11T00:17:01.125Z,101912.03
2023-08-11T00:19:29.033Z,101906.00
2023-08-11T00:21:58.673Z,101912.19
2023-08-11T00:24:27.392Z,101906.44
2023-08-11T00:26:55.203Z,101918.84
2023-08-11T00:29:23.328Z,101914.47
2023-08-11T00:31:51.177Z,101913.06
2023-08-11T00:34:18.933Z,101917.41
2023-08-11T00:36:47.079Z,101914.91
2023-08-11T00:39:16.954Z,101917.88
2023-08-11T00:41:44.721Z,101919.69
2023-08-11T00:44:12.489Z,101918.84
2023-08-11T00:46:40.617Z,101913.78
2023-08-11T00:49:10.584Z,101910.28
2023-08-11T00:51:38.423Z,101913.78
2023-08-11T00:54:07.516Z,101898.03
2023-08-11T00:56:37.525Z,101903.41
2023-08-11T00:59:05.792Z,101896.34
2023-08-11T01:01:33.644Z,101895.50
2023-08-11T01:04:01.390Z,101897.22
2023-08-11T01:06:34.984Z,101885.63
2023-08-11T01:09:10.244Z,101887.63
2023-08-11T01:11:44.247Z,101893.97
2023-08-11T01:14:18.597Z,101897.63
2023-08-11T01:16:48.353Z,101898.63
2023-08-11T01:19:24.151Z,101898.63
2023-08-11T01:21:54.110Z,101887.22
2023-08-11T01:24:23.297Z,101891.72
2023-08-11T01:26:51.100Z,101890.03
2023-08-11T01:29:19.836Z,101886.50
2023-08-11T01:31:47.687Z,101873.28
2023-08-11T01:34:15.578Z,101876.97
2023-08-11T01:36:43.900Z,101875.28
2023-08-11T01:39:11.824Z,101869.94
2023-08-11T01:41:41.330Z,101869.09
2023-08-11T01:44:09.837Z,101858.53
2023-08-11T01:46:37.678Z,101858.66
2023-08-11T01:49:05.832Z,101860.66
2023-08-11T01:51:33.758Z,101866.00
2023-08-11T01:54:01.543Z,101853.63
2023-08-11T01:56:30.238Z,101858.28
2023-08-11T01:59:00.163Z,101852.22
2023-08-11T02:01:27.982Z,101850.53
2023-08-11T02:03:56.031Z,101848.00
2023-08-11T02:06:23.855Z,101847.44
2023-08-11T02:08:51.692Z,101852.78
2023-08-11T02:11:19.446Z,101839.53
2023-08-11T02:13:47.257Z,101846.72
2023-08-11T02:16:16.476Z,101839.53
2023-08-11T02:18:44.347Z,101844.88
2023-08-11T02:21:13.582Z,101843.19
2023-08-11T02:23:41.392Z,101844.88
2023-08-11T02:26:09.191Z,101828.31
2023-08-11T02:28:37.053Z,101830.81
2023-08-11T02:31:05.098Z,101834.34
2023-08-11T02:33:34.193Z,101829.97
2023-08-11T02:36:02.228Z,101824.94
2023-08-11T02:38:29.960Z,101829.84
2023-08-11T02:40:57.801Z,101823.78
2023-08-11T02:43:25.884Z,101821.97
2023-08-11T02:45:53.703Z,101816.63
2023-08-11T02:48:21.510Z,101821.97
2023-08-11T02:50:50.754Z,101814.50
2023-08-11T02:53:18.472Z,101819.59
2023-08-11T02:55:46.145Z,101823.25
2023-08-11T02:58:13.935Z,101825.19
2023-08-11T03:00:42.223Z,101830.84
2023-08-11T03:03:11.149Z,101828.31
2023-08-11T03:05:39.164Z,101830.44
2023-08-11T03:08:08.944Z,101821.03
2023-08-11T03:10:46.639Z,101822.41
2023-08-11T03:13:24.825Z,101826.91
2023-08-11T03:15:53.413Z,101835.06
2023-08-11T03:18:21.601Z,101826.38
2023-08-11T03:20:49.660Z,101823.53
2023-08-11T03:23:18.773Z,101828.06
2023-08-11T03:25:46.579Z,101824.53
2023-08-11T03:28:14.330Z,101826.38
2023-08-11T03:30:42.229Z,101826.38
2023-08-11T03:33:10.040Z,101827.06
2023-08-11T03:35:37.868Z,101831.72
2023-08-11T03:38:05.702Z,101823.81
2023-08-11T03:40:35.102Z,101822.97
2023-08-11T03:43:02.958Z,101819.59
2023-08-11T03:45:30.806Z,101817.94
2023-08-11T03:47:58.672Z,101823.28
2023-08-11T03:50:26.502Z,101825.25
2023-08-11T03:52:54.220Z,101829.88
2023-08-11T03:55:22.230Z,101836.19
2023-08-11T03:57:52.610Z,101822.84
2023-08-11T04:00:21.391Z,101827.34
2023-08-11T04:02:48.249Z,101823.00
2023-08-11T04:05:16.064Z,101817.25
2023-08-11T04:07:43.888Z,101814.28
2023-08-11T04:10:12.915Z,101813.72
2023-08-11T04:12:41.074Z,101820.75
2023-08-11T04:15:11.247Z,101822.59
2023-08-11T04:17:39.025Z,101819.06
2023-08-11T04:20:14.015Z,101823.44
2023-08-11T04:22:42.522Z,101821.72
2023-08-11T04:25:11.857Z,101823.44
2023-08-11T04:27:40.512Z,101810.19
2023-08-11T04:30:11.461Z,101811.91
2023-08-11T04:32:39.256Z,101809.25
2023-08-11T04:35:09.060Z,101808.38
2023-08-11T04:37:37.034Z,101802.63
2023-08-11T04:40:07.960Z,101809.34
2023-08-11T04:42:35.718Z,101812.03
2023-08-11T04:45:03.749Z,101813.00
2023-08-11T04:47:33.004Z,101815.69
2023-08-11T04:50:00.906Z,101825.69
2023-08-11T04:52:28.727Z,101808.66
2023-08-11T04:54:56.597Z,101815.69
2023-08-11T04:57:24.739Z,101814.84
2023-08-11T04:59:52.559Z,101813.00
2023-08-11T05:02:20.321Z,101814.84
2023-08-11T05:04:49.495Z,101805.84
2023-08-11T05:07:17.560Z,101804.31
2023-08-11T05:09:45.341Z,101806.00
2023-08-11T05:12:15.624Z,101805.84
2023-08-11T05:14:43.849Z,101797.00
2023-08-11T05:17:12.041Z,101805.69
2023-08-11T05:19:40.100Z,101808.09
2023-08-11T05:22:09.377Z,101794.06
2023-08-11T05:24:37.169Z,101795.59
2023-08-11T05:27:05.123Z,101798.94
2023-08-11T05:29:32.933Z,101792.91
2023-08-11T05:32:00.770Z,101798.94
2023-08-11T05:34:28.528Z,101786.44
2023-08-11T05:36:56.309Z,101799.66
2023-08-11T05:39:25.571Z,101797.97
2023-08-11T05:41:53.355Z,101784.47
2023-08-11T05:44:21.175Z,101781.09
2023-08-11T05:46:48.979Z,101785.56
2023-08-11T05:49:16.814Z,101776.16
2023-08-11T05:51:44.567Z,101785.00
2023-08-11T05:54:12.320Z,101769.28
2023-08-11T05:56:41.583Z,101780.22
2023-08-11T05:59:09.396Z,101783.75
2023-08-11T06:01:37.243Z,101786.13
2023-08-11T06:04:05.749Z,101772.59
2023-08-11T06:06:33.679Z,101776.00
2023-08-11T06:09:01.475Z,101782.72
2023-08-11T06:11:29.263Z,101789.47
2023-08-11T06:13:58.476Z,101781.56
2023-08-11T06:16:26.402Z,101780.88
2023-08-11T06:18:54.304Z,101773.44
2023-08-11T06:21:22.095Z,101785.22
2023-08-11T06:23:49.892Z,101774.94
2023-08-11T06:26:17.673Z,101774.47
2023-08-11T06:28:46.202Z,101781.91
2023-08-11T06:31:15.375Z,101775.16
2023-08-11T06:33:43.222Z,101771.47
2023-08-11T06:36:11.001Z,101778.19
2023-08-11T06:38:38.821Z,101774.09
2023-08-11T06:41:06.965Z,101782.69
2023-08-11T06:43:34.764Z,101780.53
2023-08-11T06:46:02.709Z,101783.47
2023-08-11T06:48:32.012Z,101773.16
2023-08-11T06:50:59.813Z,101784.25
2023-08-11T06:53:27.611Z,101775.09
2023-08-11T06:55:55.415Z,101778.97
2023-08-11T06:58:26.048Z,101790.25
2023-08-11T07:00:54.568Z,101785.41
2023-08-11T07:03:22.355Z,101781.16
2023-08-11T07:05:52.734Z,101773.22
2023-08-11T07:08:21.007Z,101775.28
2023-08-11T07:10:48.851Z,101784.69
2023-08-11T07:13:16.575Z,101776.22
2023-08-11T07:15:44.519Z,101780.78
2023-08-11T07:18:12.630Z,101776.81
2023-08-11T07:20:42.987Z,101788.75
2023-08-11T07:23:12.488Z,101778.09
2023-08-11T07:25:40.286Z,101783.69
2023-08-11T07:28:08.180Z,101788.41
2023-08-11T07:30:37.280Z,101786.28
2023-08-11T07:33:05.710Z,101786.47
2023-08-11T07:35:33.543Z,101785.84
2023-08-11T07:38:01.402Z,101788.78
2023-08-11T07:40:30.552Z,101797.88
2023-08-11T07:42:59.465Z,101795.59
2023-08-11T07:45:27.274Z,101799.16
2023-08-11T07:47:55.188Z,101784.13
2023-08-11T07:50:23.150Z,101788.84
2023-08-11T07:52:50.908Z,101796.09
2023-08-11T07:55:18.701Z,101797.94
2023-08-11T07:57:47.975Z,101792.66
2023-08-11T08:00:17.557Z,101801.03
2023-08-11T08:02:46.293Z,101808.28
2023-08-11T08:05:14.869Z,101797.91
2023-08-11T08:07:42.805Z,101800.09
2023-08-11T08:10:12.466Z,101798.94
2023-08-11T08:12:41.813Z,101798.47
2023-08-11T08:15:12.565Z,101798.84
2023-08-11T08:17:40.584Z,101799.88
2023-08-11T08:20:10.400Z,101802.22
2023-08-11T08:22:38.466Z,101787.84
2023-08-11T08:25:07.858Z,101795.91
2023-08-11T08:27:35.981Z,101798.91
2023-08-11T08:30:04.025Z,101796.59
2023-08-11T08:32:34.860Z,101794.25
2023-08-11T08:35:02.663Z,101796.09
2023-08-11T08:37:32.693Z,101788.53
2023-08-11T08:40:01.690Z,101794.09
2023-08-11T08:42:30.048Z,101786.22
2023-08-11T08:44:59.186Z,101778.16
2023-08-11T08:47:27.533Z,101787.41
2023-08-11T08:49:57.020Z,101782.19
2023-08-11T08:52:25.287Z,101788.56
2023-08-11T08:54:53.064Z,101780.84
2023-08-11T08:57:23.085Z,101781.19
2023-08-11T08:59:50.896Z,101768.56
2023-08-11T09:02:18.772Z,101775.13
2023-08-11T09:04:47.114Z,101777.94
2023-08-11T09:07:18.406Z,101779.78
2023-08-11T09:09:48.026Z,101773.72
2023-08-11T09:12:15.902Z,101773.03
2023-08-11T09:14:44.594Z,101774.84
2023-08-11T09:17:13.079Z,101772.53
2023-08-11T09:19:44.373Z,101767.97
2023-08-11T09:22:12.447Z,101779.72
2023-08-11T09:24:42.274Z,101780.22
2023-08-11T09:27:10.104Z,101778.50
2023-08-11T09:29:38.392Z,101772.75
2023-08-11T09:32:06.568Z,101776.59
2023-08-11T09:34:34.901Z,101779.63
2023-08-11T09:37:02.624Z,101779.56
2023-08-11T09:39:31.052Z,101778.88
2023-08-11T09:42:01.690Z,101775.63
2023-08-11T09:44:29.495Z,101775.44
2023-08-11T09:46:57.932Z,101774.69
2023-08-11T09:49:42.608Z,101780.91
2023-08-11T09:52:11.267Z,101767.31
2023-08-11T09:54:39.384Z,101779.56
2023-08-11T09:57:08.899Z,101779.38
2023-08-11T09:59:36.967Z,101774.63
2023-08-11T10:02:05.107Z,101778.97
2023-08-11T10:04:45.279Z,101779.16
2023-08-11T10:07:15.634Z,101775.03
2023-08-11T10:09:44.302Z,101776.63
2023-08-11T10:12:14.321Z,101770.91
2023-08-11T10:14:42.725Z,101770.91
2023-08-11T10:17:11.922Z,101763.66
2023-08-11T10:19:39.843Z,101769.22
2023-08-11T10:22:08.160Z,101763.19
2023-08-11T10:24:38.551Z,101756.28
2023-08-11T10:27:17.936Z,101768.19
2023-08-11T10:29:46.710Z,101754.31
2023-08-11T10:32:14.533Z,101764.84
2023-08-11T10:34:42.248Z,101752.09
2023-08-11T10:37:10.085Z,101755.56
2023-08-11T10:39:38.182Z,101757.31
2023-08-11T10:42:06.565Z,101757.59
2023-08-11T10:44:35.978Z,101756.19
2023-08-11T10:47:05.298Z,101750.59
2023-08-11T10:49:35.193Z,101746.59
2023-08-11T10:52:03.775Z,101736.72
2023-08-11T10:54:32.231Z,101744.34
2023-08-11T10:57:02.508Z,101753.56
2023-08-11T10:59:31.699Z,101745.00
2023-08-11T11:02:01.478Z,101748.81
2023-08-11T11:04:31.039Z,101747.88
2023-08-11T11:06:59.796Z,101743.53
2023-08-11T11:09:28.828Z,101753.22
2023-08-11T11:11:57.126Z,101748.34
2023-08-11T11:14:28.282Z,101749.59
2023-08-11T11:17:00.247Z,101748.00
2023-08-11T11:19:29.865Z,101743.44
2023-08-11T11:21:57.717Z,101749.78
2023-08-11T11:24:25.630Z,101758.06
2023-08-11T11:26:53.518Z,101749.22
2023-08-11T11:29:24.876Z,101747.50
2023-08-11T11:31:53.456Z,101738.28
2023-08-11T11:34:22.539Z,101744.41
2023-08-11T11:36:51.854Z,101741.88
2023-08-11T11:39:20.198Z,101728.47
2023-08-11T11:41:47.928Z,101728.53
2023-08-11T11:44:16.548Z,101734.69
2023-08-11T11:46:44.492Z,101731.59
2023-08-11T11:49:28.420Z,101721.81
2023-08-11T11:52:16.374Z,101723.31
2023-08-11T11:54:44.777Z,101731.75
2023-08-11T11:57:12.614Z,101735.78
2023-08-11T11:59:43.112Z,101733.50
2023-08-11T12:02:13.930Z,101733.97
2023-08-11T12:04:44.163Z,101734.22
2023-08-11T12:07:13.032Z,101726.09
2023-08-11T12:09:54.779Z,101720.84
2023-08-11T12:12:25.532Z,101721.88
2023-08-11T12:14:53.986Z,101725.06
2023-08-11T12:17:23.248Z,101725.47
2023-08-11T12:19:50.952Z,101722.59
2023-08-11T12:22:18.749Z,101719.94
2023-08-11T12:24:46.578Z,101717.06
2023-08-11T12:27:15.770Z,101717.50
2023-08-11T12:29:43.529Z,101714.38
2023-08-11T12:32:11.648Z,101712.31
2023-08-11T12:34:39.532Z,101713.00
2023-08-11T12:37:07.504Z,101709.06
2023-08-11T12:39:35.331Z,101709.47
2023-08-11T12:42:03.184Z,101722.78
2023-08-11T12:44:32.370Z,101714.91
2023-08-11T12:47:00.190Z,101707.00
2023-08-11T12:49:27.995Z,101718.88
2023-08-11T12:51:56.048Z,101710.38
2023-08-11T12:54:23.945Z,101713.69
2023-08-11T12:56:51.862Z,101711.41
2023-08-11T12:59:19.760Z,101709.75
2023-08-11T13:01:49.019Z,101702.25
2023-08-11T13:04:16.977Z,101704.75
2023-08-11T13:06:44.728Z,101689.94
2023-08-11T13:09:13.314Z,101697.88
2023-08-11T13:11:41.063Z,101690.81
2023-08-11T13:14:08.944Z,101694.16
2023-08-11T13:16:37.566Z,101699.56
2023-08-11T13:19:07.445Z,101689.78
2023-08-11T13:21:35.306Z,101693.53
2023-08-11T13:24:03.432Z,101692.94
2023-08-11T13:26:31.248Z,101695.88
2023-08-11T13:28:59.847Z,101685.03
2023-08-11T13:31:28.806Z,101683.53
2023-08-11T13:33:56.631Z,101681.28
2023-08-11T13:36:25.869Z,101681.28
2023-08-11T13:38:53.646Z,101685.88
2023-08-11T13:41:21.457Z,101682.09
2023-08-11T13:44:52.228Z,101678.13
2023-08-11T13:47:20.043Z,101678.78
2023-08-11T13:49:47.792Z,101678.56
2023-08-11T13:52:15.857Z,101663.53
2023-08-11T13:54:44.548Z,101664.34
2023-08-11T13:57:12.363Z,101661.63
2023-08-11T13:59:40.274Z,101673.13
2023-08-11T14:02:09.748Z,101670.00
2023-08-11T14:04:56.461Z,101667.06
2023-08-11T14:07:31.004Z,101662.91
2023-08-11T14:10:01.449Z,101661.25
2023-08-11T14:12:29.248Z,101660.81
2023-08-11T14:14:57.040Z,101662.06
2023-08-11T14:17:24.845Z,101663.28
2023-08-11T14:19:52.652Z,101657.47
2023-08-11T14:22:21.790Z,101661.84
2023-08-11T14:24:49.548Z,101664.56
2023-08-11T14:27:17.321Z,101658.31
2023-08-11T14:29:45.494Z,101653.94
2023-08-11T14:32:23.026Z,101659.34
2023-08-11T14:34:52.310Z,101653.72
2023-08-11T14:37:21.962Z,101654.56
2023-08-11T14:39:49.749Z,101655.19
2023-08-11T14:42:18.032Z,101657.03
2023-08-11T14:44:45.811Z,101657.88
2023-08-11T14:47:14.914Z,101655.81
2023-08-11T14:49:43.653Z,101652.44
2023-08-11T14:52:12.230Z,101653.28
2023-08-11T14:54:41.791Z,101654.09
2023-08-11T14:57:10.732Z,101659.50
2023-08-11T14:59:40.705Z,101646.78
2023-08-11T15:02:09.431Z,101643.66
2023-08-11T15:04:37.519Z,101653.69
2023-08-11T15:07:05.454Z,101655.16
2023-08-11T15:09:34.077Z,101645.56
2023-08-11T15:12:03.356Z,101646.63
2023-08-11T15:14:31.177Z,101646.84
2023-08-11T15:16:59.149Z,101642.44
2023-08-11T15:19:27.133Z,101645.13
2023-08-11T15:21:55.700Z,101632.41
2023-08-11T15:24:23.581Z,101636.81
2023-08-11T15:26:51.417Z,101642.44
2023-08-11T15:29:20.666Z,101639.75
2023-08-11T15:31:48.654Z,101632.84
2023-08-11T15:34:16.923Z,101629.53
2023-08-11T15:36:45.507Z,101627.03
2023-08-11T15:39:13.286Z,101622.47
2023-08-11T15:41:41.084Z,101633.72
2023-08-11T15:44:08.908Z,101626.19
2023-08-11T16:59:47.533Z,101584.22
2023-08-11T17:02:15.399Z,101579.34
2023-08-11T17:04:43.275Z,101580.44
2023-08-11T17:07:11.160Z,101583.47
2023-08-11T17:09:38.980Z,101586.28
2023-08-11T17:12:07.587Z,101576.59
2023-08-11T17:14:35.443Z,101584.34
2023-08-11T17:17:04.633Z,101575.63
2023-08-11T17:19:32.622Z,101576.47
2023-08-11T17:22:01.143Z,101568.59
2023-08-11T17:24:28.966Z,101565.91
2023-08-11T17:26:56.904Z,101566.09
2023-08-11T17:29:24.638Z,101561.13
2023-08-11T17:31:52.487Z,101560.06
2023-08-11T17:34:21.705Z,101559.25
2023-08-11T17:36:50.024Z,101556.53
2023-08-11T17:39:17.788Z,101555.69
2023-08-11T17:41:47.217Z,101555.69
2023-08-11T17:44:15.142Z,101559.44
2023-08-11T17:46:42.991Z,101561.50
2023-08-11T17:49:10.889Z,101557.97
2023-08-11T17:51:40.084Z,101562.34
2023-08-11T17:54:10.311Z,101560.69
2023-08-11T17:56:38.766Z,101562.56
2023-08-11T17:59:06.958Z,101570.66
2023-08-11T18:01:34.900Z,101570.66
2023-08-11T18:04:06.244Z,101568.16
2023-08-11T18:07:57.088Z,101560.25
2023-08-11T18:11:08.494Z,101565.88
2023-08-11T18:13:58.796Z,101569.81
2023-08-11T18:16:28.274Z,101571.50
2023-08-11T18:18:57.263Z,101567.31
2023-08-11T18:21:25.040Z,101568.97
2023-08-11T18:23:52.796Z,101578.13
2023-08-11T18:26:20.558Z,101572.09
2023-08-11T18:28:48.421Z,101585.41
2023-08-11T18:31:17.657Z,101590.38
2023-08-11T18:33:45.497Z,101592.22
2023-08-11T18:36:13.307Z,101582.41
2023-08-11T18:38:45.566Z,101599.19
2023-08-11T18:41:13.401Z,101598.34
2023-08-11T18:43:42.119Z,101596.25
2023-08-11T18:46:10.061Z,101601.63
2023-08-11T18:48:39.272Z,101605.94
2023-08-11T18:51:07.034Z,101603.88
2023-08-11T18:53:34.806Z,101611.09
2023-08-11T18:56:02.653Z,101606.47
2023-08-11T18:58:30.627Z,101608.94
2023-08-11T19:00:58.593Z,101606.38
2023-08-11T19:03:26.434Z,101604.72
2023-08-11T19:05:55.664Z,101599.72
2023-08-11T19:08:23.482Z,101605.94
2023-08-11T19:10:51.311Z,101612.56
2023-08-11T19:13:19.239Z,101601.50
2023-08-11T19:15:48.244Z,101592.72
2023-08-11T19:18:16.427Z,101607.69
2023-08-11T19:20:45.258Z,101605.00
2023-08-11T19:23:14.625Z,101608.72
2023-08-11T19:25:42.445Z,101609.09
2023-08-11T19:28:12.088Z,101611.16
2023-08-11T19:30:40.109Z,101614.47
2023-08-11T19:33:08.115Z,101617.75
2023-08-11T19:35:36.027Z,101615.44
2023-08-11T19:38:04.389Z,101620.19
2023-08-11T19:40:33.565Z,101621.63
2023-08-11T19:43:01.349Z,101612.88
2023-08-11T19:45:29.283Z,101617.63
2023-08-11T19:47:57.233Z,101609.72
2023-08-11T19:50:25.057Z,101604.72
2023-08-11T19:52:53.893Z,101610.13
2023-08-11T19:55:21.719Z,101618.41
2023-08-11T19:57:51.042Z,101620.47
2023-08-11T20:00:19.117Z,101618.78
2023-08-11T20:02:46.945Z,101620.84
2023-08-11T20:05:15.848Z,101617.53
2023-08-11T20:07:43.611Z,101611.25
2023-08-11T20:10:11.972Z,101603.34
2023-08-11T20:12:39.787Z,101597.53
2023-08-11T20:15:10.794Z,101604.13
2023-08-11T20:17:38.664Z,101617.00
2023-08-11T20:20:07.733Z,101612.00
2023-08-11T20:22:35.535Z,101616.09
2023-08-11T20:25:03.497Z,101619.81
2023-08-11T20:27:31.264Z,101620.84
2023-08-11T20:29:59.090Z,101631.81
2023-08-11T20:32:28.384Z,101628.00
2023-08-11T20:34:56.346Z,101627.56
2023-08-11T20:37:24.228Z,101628.97
2023-08-11T20:39:52.111Z,101621.25
2023-08-11T20:42:20.000Z,101620.78
2023-08-11T20:44:47.977Z,101618.00
2023-08-11T20:47:15.784Z,101634.41
2023-08-11T20:49:44.990Z,101621.50
2023-08-11T20:52:12.701Z,101628.28
2023-08-11T20:54:44.204Z,101625.78
2023-08-11T20:57:12.403Z,101632.19
2023-08-11T20:59:40.734Z,101614.91
2023-08-11T21:02:08.766Z,101622.78
2023-08-11T21:04:36.789Z,101615.09
2023-08-11T21:07:06.226Z,101616.28
2023-08-11T21:09:34.204Z,101617.50
2023-08-11T21:12:02.194Z,101612.31
2023-08-11T21:14:30.169Z,101605.78
2023-08-11T21:17:00.385Z,101618.91
2023-08-11T21:19:30.062Z,101622.81
2023-08-11T21:21:57.932Z,101624.03
2023-08-11T21:24:27.133Z,101627.75
2023-08-11T21:26:55.072Z,101632.50
2023-08-11T21:29:23.156Z,101633.50
2023-08-11T21:31:50.960Z,101630.66
2023-08-11T21:34:18.897Z,101624.59
2023-08-11T21:36:46.729Z,101624.41
2023-08-11T21:39:14.567Z,101614.63
2023-08-11T21:41:43.749Z,101620.69
2023-08-11T21:44:11.636Z,101620.03
2023-08-11T21:46:39.405Z,101611.94
2023-08-11T21:49:07.173Z,101614.81
2023-08-11T21:51:34.944Z,101615.03
2023-08-11T21:54:02.676Z,101606.94
2023-08-11T21:56:30.439Z,101600.69
2023-08-11T21:58:59.744Z,101601.53
2023-08-11T22:01:27.673Z,101608.78
2023-08-11T22:03:55.573Z,101618.06
2023-08-11T22:06:23.430Z,101613.03
2023-08-11T22:08:51.188Z,101619.25
2023-08-11T22:11:35.440Z,101622.78
2023-08-11T22:14:06.470Z,101623.81
2023-08-11T22:16:34.654Z,101623.19
2023-08-11T22:19:02.504Z,101633.31
2023-08-11T22:21:30.330Z,101631.66
2023-08-11T22:23:58.367Z,101631.81
2023-08-11T22:26:26.243Z,101624.75
2023-08-11T22:28:54.097Z,101622.25
2023-08-11T22:31:23.284Z,101619.75
2023-08-11T22:33:51.218Z,101624.84
2023-08-11T22:36:19.109Z,101632.09
2023-08-11T22:38:46.877Z,101632.28
2023-08-11T22:41:14.710Z,101631.66
2023-08-11T22:43:42.535Z,101627.44
2023-08-11T22:46:10.391Z,101630.13
2023-08-11T22:48:39.577Z,101627.63
2023-08-11T22:51:07.616Z,101623.47
2023-08-11T22:53:35.705Z,101622.63
2023-08-11T22:56:03.841Z,101626.34
2023-08-11T22:58:32.110Z,101623.47
2023-08-11T23:01:01.528Z,101620.94
2023-08-11T23:03:29.382Z,101621.78
2023-08-11T23:05:58.637Z,101617.38
2023-08-11T23:08:26.440Z,101609.69
2023-08-11T23:10:54.222Z,101607.63
2023-08-11T23:13:22.043Z,101605.13
2023-08-11T23:15:49.936Z,101605.13
2023-08-11T23:18:17.772Z,101608.41
2023-08-11T23:20:46.976Z,101617.13
2023-08-11T23:23:16.379Z,101613.78
2023-08-11T23:25:45.142Z,101613.78
2023-08-11T23:28:13.252Z,101599.72
2023-08-11T23:30:41.263Z,101611.44
2023-08-11T23:33:09.039Z,101616.84
2023-08-11T23:35:40.222Z,101617.03
2023-08-11T23:38:08.040Z,101609.31
2023-08-11T23:40:37.266Z,101580.75
2023-08-11T23:43:05.605Z,101586.63
2023-08-11T23:45:33.496Z,101601.97
2023-08-11T23:48:01.491Z,101606.88
2023-08-11T23:50:29.496Z,101603.53
2023-08-11T23:52:57.325Z,101606.59
2023-08-11T23:55:26.016Z,101601.38
2023-08-11T23:57:55.593Z,101599.91
